createdAt,value
2019-01-21T00:03:56.987Z,-4.58
2019-01-21T00:06:47.705Z,-4.58
2019-01-21T00:09:17.085Z,-4.61
2019-01-21T00:11:46.429Z,-4.65
2019-01-21T00:14:16.060Z,-4.71
2019-01-21T00:16:45.398Z,-4.73
2019-01-21T00:19:14.940Z,-4.74
2019-01-21T00:21:44.283Z,-4.77
2019-01-21T00:24:34.842Z,-4.79
2019-01-21T00:27:04.251Z,-4.80
2019-01-21T00:29:33.907Z,-4.84
2019-01-21T00:32:03.587Z,-4.87
2019-01-21T00:34:33.235Z,-4.89
2019-01-21T00:37:24.981Z,-4.88
2019-01-21T00:39:54.335Z,-4.90
2019-01-21T00:42:25.293Z,-4.91
2019-01-21T00:44:54.946Z,-4.93
2019-01-21T00:47:30.151Z,-4.95
2019-01-21T00:50:01.111Z,-4.95
2019-01-21T00:52:30.564Z,-4.96
2019-01-21T00:55:00.030Z,-4.99
2019-01-21T00:57:29.374Z,-5.01
2019-01-21T00:59:59.038Z,-5.02
2019-01-21T01:02:28.667Z,-5.03
2019-01-21T01:07:38.692Z,-5.11
2019-01-21T01:13:10.302Z,-5.13
2019-01-21T01:15:39.960Z,-5.11
2019-01-21T01:18:21.824Z,-5.12
2019-01-21T01:20:51.284Z,-5.11
2019-01-21T01:26:00.448Z,-5.14
2019-01-21T01:28:31.406Z,-5.16
2019-01-21T01:31:01.065Z,-5.19
2019-01-21T01:33:51.663Z,-5.23
2019-01-21T01:36:21.589Z,-5.25
2019-01-21T01:39:10.311Z,-5.27
2019-01-21T01:41:39.689Z,-5.29
2019-01-21T01:44:09.456Z,-5.30
2019-01-21T01:46:39.103Z,-5.30
2019-01-21T01:49:08.437Z,-5.33
2019-01-21T01:51:43.200Z,-5.41
2019-01-21T01:54:12.540Z,-5.37
2019-01-21T01:56:42.880Z,-5.39
2019-01-21T01:59:19.569Z,-5.38
2019-01-21T02:01:49.504Z,-5.39
2019-01-21T02:08:12.655Z,-5.41
2019-01-21T02:10:43.865Z,-5.46
2019-01-21T02:13:13.616Z,-5.46
2019-01-21T02:15:43.270Z,-5.47
2019-01-21T02:21:13.597Z,-5.47
2019-01-21T02:30:27.779Z,-5.57
2019-01-21T02:33:35.954Z,-5.65
2019-01-21T02:39:46.055Z,-5.74
2019-01-21T02:45:56.010Z,-5.78
2019-01-21T02:49:04.247Z,-5.82
2019-01-21T02:52:12.328Z,-5.82
2019-01-21T02:58:55.040Z,-5.77
2019-01-21T03:02:06.211Z,-5.74
2019-01-21T03:05:14.593Z,-5.71
2019-01-21T03:08:23.015Z,-5.70
2019-01-21T03:11:31.081Z,-5.71
2019-01-21T03:14:39.140Z,-5.74
2019-01-21T03:17:48.555Z,-5.81
2019-01-21T03:20:56.597Z,-5.85
2019-01-21T03:24:04.913Z,-5.91
2019-01-21T03:27:13.298Z,-5.96
2019-01-21T03:30:22.975Z,-5.95
2019-01-21T03:39:35.490Z,-5.94
2019-01-21T03:42:44.923Z,-5.93
2019-01-21T03:48:36.972Z,-5.91
2019-01-21T03:51:45.160Z,-5.90
2019-01-21T03:57:37.460Z,-5.90
2019-01-21T04:00:45.540Z,-5.91
2019-01-21T04:13:00.680Z,-5.96
2019-01-21T04:16:10.162Z,-6.01
2019-01-21T04:19:00.882Z,-6.03
2019-01-21T04:22:09.251Z,-6.10
2019-01-21T04:24:59.764Z,-6.18
2019-01-21T04:28:10.249Z,-6.23
2019-01-21T04:37:16.751Z,-6.26
2019-01-21T04:40:08.585Z,-6.23
2019-01-21T04:46:03.782Z,-6.18
2019-01-21T04:48:56.773Z,-6.18
2019-01-21T04:52:09.663Z,-6.17
2019-01-21T04:54:59.922Z,-6.20
2019-01-21T04:57:52.319Z,-6.26
2019-01-21T05:01:10.812Z,-6.27
2019-01-21T05:04:05.038Z,-6.28
2019-01-21T05:09:36.646Z,-6.30
2019-01-21T05:12:47.810Z,-6.31
2019-01-21T05:15:58.742Z,-6.37
2019-01-21T05:19:12.322Z,-6.34
2019-01-21T05:22:02.666Z,-6.35
2019-01-21T05:24:52.934Z,-6.35
2019-01-21T05:31:35.721Z,-6.34
2019-01-21T05:34:45.117Z,-6.31
2019-01-21T05:44:16.374Z,-4.69
2019-01-21T05:47:09.686Z,-4.98
2019-01-21T05:53:20.515Z,-5.44
2019-01-21T05:56:29.963Z,-5.63
2019-01-21T05:59:38.328Z,-5.79
2019-01-21T06:02:48.150Z,-5.92
2019-01-21T06:08:58.892Z,-6.10
2019-01-21T06:12:08.754Z,-6.16
2019-01-21T06:15:16.819Z,-6.22
2019-01-21T06:18:25.134Z,-6.26
2019-01-21T06:21:33.720Z,-6.29
2019-01-21T06:24:43.119Z,-6.31
2019-01-21T06:33:56.982Z,-6.37
2019-01-21T06:37:06.731Z,-6.37
2019-01-21T06:40:15.103Z,-6.39
2019-01-21T06:46:25.692Z,-6.44
2019-01-21T06:49:33.756Z,-6.49
2019-01-21T06:52:43.169Z,-6.50
2019-01-21T06:55:51.531Z,-6.51
2019-01-21T06:59:00.994Z,-6.49
2019-01-21T07:02:09.338Z,-6.48
2019-01-21T07:14:43.786Z,-6.51
2019-01-21T07:17:52.035Z,-6.51
2019-01-21T07:27:07.072Z,-6.49
2019-01-21T07:29:50.213Z,-6.54
2019-01-21T07:32:59.905Z,-6.54
2019-01-21T07:39:23.454Z,-6.57
2019-01-21T07:42:31.723Z,-6.55
2019-01-21T07:45:41.592Z,-6.50
2019-01-21T07:48:56.514Z,-6.47
2019-01-21T07:51:57.181Z,-6.43
2019-01-21T07:55:05.767Z,-6.41
2019-01-21T08:01:10.347Z,-6.30
2019-01-21T08:04:18.457Z,-6.27
2019-01-21T08:07:26.764Z,-6.24
2019-01-21T08:13:55.235Z,-6.07
2019-01-21T08:20:06.092Z,-5.96
2019-01-21T08:23:15.495Z,-5.96
2019-01-21T08:32:45.703Z,-5.10
2019-01-21T08:35:55.146Z,-4.18
2019-01-21T08:45:08.201Z,-1.83
2019-01-21T08:48:17.665Z,-1.15
2019-01-21T08:51:08.023Z,-0.75
2019-01-21T08:53:58.341Z,-0.76
2019-01-21T08:56:48.906Z,-0.62
2019-01-21T09:02:47.473Z,0.29
2019-01-21T09:08:42.789Z,1.17
2019-01-21T09:14:35.102Z,1.71
2019-01-21T09:17:44.283Z,1.95
2019-01-21T09:20:37.240Z,2.27
2019-01-21T09:23:45.541Z,2.52
2019-01-21T09:26:38.787Z,2.64
2019-01-21T09:29:29.115Z,2.74
2019-01-21T09:32:37.176Z,2.80
2019-01-21T09:35:45.233Z,2.90
2019-01-21T09:38:53.286Z,3.07
2019-01-21T09:42:01.343Z,3.38
2019-01-21T09:47:31.455Z,4.18
2019-01-21T09:50:01.081Z,4.48
2019-01-21T09:52:32.201Z,4.48
2019-01-21T09:55:01.705Z,4.49
2019-01-21T10:00:33.402Z,4.48
2019-01-21T10:03:42.804Z,4.36
2019-01-21T10:09:45.238Z,4.14
2019-01-21T10:16:06.272Z,4.50
2019-01-21T10:19:14.315Z,4.74
2019-01-21T10:22:22.553Z,4.81
2019-01-21T10:25:13.458Z,4.98
2019-01-21T10:28:22.889Z,5.26
2019-01-21T10:31:31.199Z,5.33
2019-01-21T10:34:39.262Z,5.43
2019-01-21T10:37:47.559Z,5.50
2019-01-21T10:40:57.700Z,5.75
2019-01-21T10:44:05.766Z,5.94
2019-01-21T10:47:13.822Z,5.99
2019-01-21T10:50:22.894Z,6.08
2019-01-21T10:53:04.788Z,5.55
2019-01-21T10:56:14.068Z,5.55
2019-01-21T11:05:37.190Z,5.41
2019-01-21T11:08:45.718Z,5.09
2019-01-21T11:11:55.092Z,4.84
2019-01-21T11:21:09.335Z,6.03
2019-01-21T11:24:17.637Z,6.03
2019-01-21T11:30:27.772Z,6.05
2019-01-21T11:33:37.454Z,6.07
2019-01-21T11:39:47.441Z,6.44
2019-01-21T11:42:58.745Z,6.44
2019-01-21T11:46:06.791Z,6.23
2019-01-21T11:49:16.184Z,6.11
2019-01-21T11:55:18.803Z,6.24
2019-01-21T11:58:26.929Z,6.27
2019-01-21T12:01:36.302Z,6.32
2019-01-21T12:04:26.801Z,6.67
2019-01-21T12:07:34.879Z,6.67
2019-01-21T12:10:42.958Z,7.15
2019-01-21T12:13:52.456Z,7.63
2019-01-21T12:17:01.999Z,8.05
2019-01-21T12:42:52.150Z,7.20
2019-01-21T12:46:01.566Z,6.90
2019-01-21T12:49:11.236Z,6.90
2019-01-21T12:52:19.817Z,6.94
2019-01-21T12:55:28.903Z,7.38
2019-01-21T13:01:38.790Z,7.76
2019-01-21T13:04:48.238Z,7.74
2019-01-21T13:11:16.975Z,8.09
2019-01-21T13:14:25.042Z,8.39
2019-01-21T13:21:03.279Z,8.73
2019-01-21T13:24:12.426Z,8.71
2019-01-21T13:33:36.643Z,8.62
2019-01-21T13:43:10.331Z,8.54
2019-01-21T13:46:18.388Z,8.59
2019-01-21T13:49:19.189Z,8.50
2019-01-21T13:52:28.378Z,8.45
2019-01-21T13:55:57.276Z,8.61
2019-01-21T13:59:05.348Z,8.74
2019-01-21T14:02:15.594Z,8.76
2019-01-21T14:11:20.465Z,8.14
2019-01-21T14:14:28.761Z,7.80
2019-01-21T14:17:22.121Z,7.64
2019-01-21T14:20:30.187Z,7.64
2019-01-21T14:23:25.281Z,7.47
2019-01-21T14:26:30.760Z,7.14
2019-01-21T14:32:55.819Z,6.76
2019-01-21T14:36:05.613Z,6.90
2019-01-21T14:39:13.952Z,6.89
2019-01-21T14:42:22.028Z,6.94
2019-01-21T14:45:30.084Z,6.92
2019-01-21T14:48:38.139Z,6.75
2019-01-21T14:51:46.206Z,6.57
2019-01-21T14:58:07.597Z,6.26
2019-01-21T15:01:15.963Z,6.04
2019-01-21T15:04:25.594Z,6.07
2019-01-21T15:16:39.243Z,6.39
2019-01-21T15:22:31.869Z,5.89
2019-01-21T18:12:42.701Z,1.57
2019-01-21T18:15:32.952Z,1.59
2019-01-21T18:18:02.588Z,1.61
2019-01-21T18:20:31.987Z,1.62
2019-01-21T18:23:20.661Z,1.69
2019-01-21T18:25:50.014Z,1.69
2019-01-21T18:28:39.316Z,1.69
2019-01-21T18:31:09.087Z,1.69
2019-01-21T18:33:58.057Z,1.58
2019-01-21T18:36:27.706Z,1.58
2019-01-21T18:38:57.415Z,1.59
2019-01-21T18:41:27.061Z,1.59
2019-01-21T18:43:56.738Z,1.59
2019-01-21T18:46:26.331Z,1.62
2019-01-21T18:48:56.705Z,1.67
2019-01-21T18:51:26.524Z,1.68
2019-01-21T18:53:56.863Z,1.65
2019-01-21T18:56:26.394Z,1.57
2019-01-21T18:58:56.087Z,1.53
2019-01-21T19:01:25.739Z,1.52
2019-01-21T19:03:55.448Z,1.46
2019-01-21T19:06:25.137Z,1.42
2019-01-21T19:08:54.464Z,1.43
2019-01-21T19:11:24.540Z,1.42
2019-01-21T19:14:14.998Z,1.43
2019-01-21T19:16:46.330Z,1.46
2019-01-21T19:19:15.679Z,1.48
2019-01-21T19:21:45.266Z,1.47
2019-01-21T19:24:14.903Z,1.51
2019-01-21T19:26:44.249Z,1.52
2019-01-21T19:29:13.858Z,1.58
2019-01-21T19:31:43.205Z,1.62
2019-01-21T19:34:12.537Z,1.58
2019-01-21T19:36:42.190Z,1.49
2019-01-21T19:39:11.527Z,1.53
2019-01-21T19:41:42.536Z,1.52
2019-01-21T19:44:12.121Z,1.54
2019-01-21T19:46:44.206Z,1.55
2019-01-21T19:49:18.406Z,1.55
2019-01-21T19:51:48.050Z,1.62
2019-01-21T19:54:40.306Z,1.70
2019-01-21T19:57:09.658Z,1.80
2019-01-21T19:59:39.509Z,1.82
2019-01-21T20:02:08.911Z,1.82
2019-01-21T20:04:38.805Z,1.79
2019-01-21T20:07:08.332Z,1.73
2019-01-21T20:12:32.508Z,1.68
2019-01-21T20:15:02.242Z,1.70
2019-01-21T20:20:46.325Z,1.68
2019-01-21T20:23:15.671Z,1.72
2019-01-21T20:25:45.402Z,1.75
2019-01-21T20:28:14.760Z,1.79
2019-01-21T20:30:44.252Z,1.80
2019-01-21T20:33:13.598Z,1.77
2019-01-21T20:35:43.244Z,1.75
2019-01-21T20:38:12.595Z,1.73
2019-01-21T20:40:42.241Z,1.73
2019-01-21T20:43:12.339Z,1.77
2019-01-21T20:45:41.676Z,1.78
2019-01-21T20:48:11.327Z,1.76
2019-01-21T20:50:40.977Z,1.75
2019-01-21T20:53:10.386Z,1.73
2019-01-21T20:55:39.722Z,1.72
2019-01-21T21:58:43.336Z,1.52
2019-01-21T22:01:12.679Z,1.51
2019-01-21T22:03:42.628Z,1.51
2019-01-21T22:06:11.968Z,1.52
2019-01-21T22:08:41.567Z,1.53
2019-01-21T22:11:10.939Z,1.55
2019-01-21T22:13:52.701Z,1.49
2019-01-21T22:16:22.355Z,1.49
2019-01-21T22:18:51.700Z,1.49
2019-01-21T22:21:21.064Z,1.52
2019-01-21T22:23:50.701Z,1.56
2019-01-21T22:26:20.044Z,1.61
2019-01-21T22:28:49.558Z,1.63
2019-01-21T22:31:18.911Z,1.67
2019-01-21T22:33:48.564Z,1.67
2019-01-21T22:36:17.904Z,1.63
2019-01-21T22:38:47.577Z,1.57
2019-01-21T22:41:16.920Z,1.57
2019-01-21T22:43:46.579Z,1.57
2019-01-21T22:46:16.223Z,1.57
2019-01-21T22:48:45.946Z,1.57
2019-01-21T22:51:15.594Z,1.60
2019-01-21T22:53:44.964Z,1.60
2019-01-21T22:56:14.589Z,1.61
2019-01-21T22:58:44.269Z,1.64
